Time;durP1;ratioP1;P1;durP2;ratioP2;P2;SDS_P1;SDS_P2;PMS_P1;PMS_P2;Temp;Humidity;BMP_temperature;BMP_pressure;BME280_temperature;BME280_humidity;BME280_pressure;Samples;Min_cycle;Max_cycle;Signal;HPM_P1;HPM_P2
2022/06/29 00:00:04;;;;;;;;;;;;;;;;;;5068256;28;19923;-75
2022/06/29 00:02:30;;;;;;;;;;;;;;;;;;5063248;28;19912;-76
2022/06/29 00:04:56;;;;;;;;;;;;;;;;;;5062944;28;19917;-75
2022/06/29 00:07:23;;;;;;;;;;;;;;;;;;5053277;28;19923;-75
2022/06/29 00:09:49;;;;;;;;;;;;;;;;;;5068438;28;19908;-77
2022/06/29 00:12:15;;;;;;;;;;;;;;;;;;5058915;28;19916;-75
2022/06/29 00:14:44;;;;;;;;;;;;;;;;;;5064561;28;19908;-76
2022/06/29 00:17:10;;;;;;;;;;;;;;;;;;5067970;28;19908;-75
2022/06/29 00:19:37;;;;;;;;;;;;;;;;;;5069269;28;19921;-75
2022/06/29 00:22:03;;;;;;;;;;;;;;;;;;5064738;28;19915;-75
2022/06/29 00:24:29;;;;;;;;;;;;;;;;;;5062897;28;19974;-75
2022/06/29 00:26:55;;;;;;;;;;;;;;;;;;5068425;28;19909;-76
2022/06/29 00:29:21;;;;;;;;;;;;;;;;;;5072230;28;19923;-76
2022/06/29 00:31:48;;;;;;;;;;;;;;;;;;5059626;28;20337;-76
2022/06/29 00:34:14;;;;;;;;;;;;;;;;;;5070897;28;19926;-76
2022/06/29 00:36:40;;;;;;;;;;;;;;;;;;5072077;28;19916;-77
2022/06/29 00:39:06;;;;;;;;;;;;;;;;;;5060387;28;19917;-77
2022/06/29 00:41:32;;;;;;;;;;;;;;;;;;5067687;28;19919;-77
2022/06/29 00:43:58;;;;;;;;;;;;;;;;;;5063833;28;19908;-77
2022/06/29 00:46:24;;;;;;;;;;;;;;;;;;5044422;28;19908;-77
2022/06/29 00:48:51;;;;;;;;;;;;;;;;;;5062071;28;19912;-77
2022/06/29 00:51:17;;;;;;;;;;;;;;;;;;5068692;28;19923;-77
2022/06/29 00:53:43;;;;;;;;;;;;;;;;;;5070039;28;19908;-77
2022/06/29 00:56:09;;;;;;;;;;;;;;;;;;5064817;28;19924;-77
2022/06/29 00:58:35;;;;;;;;;;;;;;;;;;5059793;28;19916;-77
2022/06/29 01:01:02;;;;;;;;;;;;;;;;;;5071468;28;20365;-76
2022/06/29 01:03:28;;;;;;;;;;;;;;;;;;5051813;28;19931;-76
2022/06/29 01:05:54;;;;;;;;;;;;;;;;;;5056210;28;19909;-77
2022/06/29 01:08:20;;;;;;;;;;;;;;;;;;5069184;28;19916;-76
2022/06/29 01:10:46;;;;;;;;;;;;;;;;;;5050838;28;19915;-76
2022/06/29 01:13:12;;;;;;;;;;;;;;;;;;5061068;28;19913;-76
2022/06/29 01:15:38;;;;;;;;;;;;;;;;;;5047650;28;19909;-76
2022/06/29 01:18:04;;;;;;;;;;;;;;;;;;5064083;28;19913;-76
2022/06/29 01:20:31;;;;;;;;;;;;;;;;;;5069109;28;19916;-76
2022/06/29 01:22:57;;;;;;;;;;;;;;;;;;5063205;28;20398;-76
2022/06/29 01:25:23;;;;;;;;;;;;;;;;;;5068756;28;19909;-76
2022/06/29 01:27:49;;;;;;;;;;;;;;;;;;5071290;28;19908;-75
2022/06/29 01:30:15;;;;;;;;;;;;;;;;;;5070295;28;19923;-76
2022/06/29 01:32:42;;;;;;;;;;;;;;;;;;5062547;28;19917;-75
2022/06/29 01:35:09;;;;;;;;;;;;;;;;;;5057387;28;19909;-76
2022/06/29 01:37:35;;;;;;;;;;;;;;;;;;5069225;28;19912;-75
2022/06/29 01:40:01;;;;;;;;;;;;;;;;;;5064489;28;20335;-76
2022/06/29 01:42:27;;;;;;;;;;;;;;;;;;5062078;28;20308;-77
2022/06/29 01:44:53;;;;;;;;;;;;;;;;;;5061901;28;19908;-77
2022/06/29 01:47:20;;;;;;;;;;;;;;;;;;5066196;28;19915;-77
2022/06/29 01:49:46;;;;;;;;;;;;;;;;;;5057641;28;19915;-77
2022/06/29 01:52:12;;;;;;;;;;;;;;;;;;5055977;28;19913;-77
2022/06/29 01:54:39;;;;;;;;;;;;;;;;;;5063769;28;19908;-77
2022/06/29 01:57:05;;;;;;;;;;;;;;;;;;5056685;28;19921;-77
2022/06/29 01:59:31;;;;;;;;;;;;;;;;;;5062847;28;19950;-77
2022/06/29 02:01:57;;;;;;;;;;;;;;;;;;5055380;28;19917;-75
2022/06/29 02:04:23;;;;;;;;;;;;;;;;;;5060001;28;19915;-76
2022/06/29 02:06:49;;;;;;;;;;;;;;;;;;5063161;28;20370;-75
2022/06/29 02:09:15;;;;;;;;;;;;;;;;;;5051377;28;20283;-75
2022/06/29 02:11:42;;;;;;;;;;;;;;;;;;5064660;28;19919;-75
2022/06/29 02:14:08;;;;;;;;;;;;;;;;;;5060259;28;19913;-75
2022/06/29 02:16:34;;;;;;;;;;;;;;;;;;5057950;28;19913;-75
2022/06/29 02:19:00;;;;;;;;;;;;;;;;;;5061750;28;19927;-75
2022/06/29 02:21:26;;;;;;;;;;;;;;;;;;5056698;28;19912;-76
2022/06/29 02:23:53;;;;;;;;;;;;;;;;;;5065423;28;19908;-75
2022/06/29 02:26:19;;;;;;;;;;;;;;;;;;5069763;28;19912;-75
2022/06/29 02:28:45;;;;;;;;;;;;;;;;;;5069925;28;19908;-76
2022/06/29 02:36:41;;;;;;;;;;;;;;;;;;5071114;28;19909;-77
2022/06/29 02:39:07;;;;;;;;;;;;;;;;;;5065904;28;19938;-77
2022/06/29 02:41:33;;;;;;;;;;;;;;;;;;5069881;28;19915;-77
2022/06/29 02:44:00;;;;;;;;;;;;;;;;;;5070374;28;19913;-81
2022/06/29 02:46:26;;;;;;;;;;;;;;;;;;5069620;28;19908;-77
2022/06/29 02:48:52;;;;;;;;;;;;;;;;;;5067679;28;19912;-77
2022/06/29 02:51:18;;;;;;;;;;;;;;;;;;5069098;28;20390;-76
2022/06/29 02:53:44;;;;;;;;;;;;;;;;;;5071048;28;19909;-77
2022/06/29 02:56:11;;;;;;;;;;;;;;;;;;5066067;28;19921;-74
2022/06/29 02:58:37;;;;;;;;;;;;;;;;;;5068515;28;19941;-77
2022/06/29 03:01:03;;;;;;;;;;;;;;;;;;5068366;28;19908;-76
2022/06/29 03:03:29;;;;;;;;;;;;;;;;;;5055078;28;20339;-75
2022/06/29 03:05:55;;;;;;;;;;;;;;;;;;5065443;28;20371;-75
2022/06/29 03:08:21;;;;;;;;;;;;;;;;;;5057873;28;20271;-77
2022/06/29 03:10:49;;;;;;;;;;;;;;;;;;5063162;28;19913;-76
2022/06/29 03:13:15;;;;;;;;;;;;;;;;;;5062150;28;20003;-77
2022/06/29 03:15:41;;;;;;;;;;;;;;;;;;5065614;28;19990;-76
2022/06/29 03:18:07;;;;;;;;;;;;;;;;;;5065059;28;19913;-76
2022/06/29 03:20:33;;;;;;;;;;;;;;;;;;5059708;28;19917;-76
2022/06/29 03:23:00;;;;;;;;;;;;;;;;;;5064967;28;19913;-76
2022/06/29 03:25:26;;;;;;;;;;;;;;;;;;5069556;28;20336;-75
2022/06/29 03:27:52;;;;;;;;;;;;;;;;;;5069664;28;20287;-76
2022/06/29 03:30:18;;;;;;;;;;;;;;;;;;5069668;28;19919;-75
2022/06/29 03:32:44;;;;;;;;;;;;;;;;;;5055789;28;21478;-76
2022/06/29 03:35:10;;;;;;;;;;;;;;;;;;5069753;28;19909;-77
2022/06/29 03:37:37;;;;;;;;;;;;;;;;;;5072089;28;19919;-77
2022/06/29 03:40:03;;;;;;;;;;;;;;;;;;5058513;28;19917;-77
2022/06/29 03:42:29;;;;;;;;;;;;;;;;;;5063231;28;19915;-77
2022/06/29 03:44:55;;;;;;;;;;;;;;;;;;5069918;28;20287;-76
2022/06/29 03:47:22;;;;;;;;;;;;;;;;;;5071316;28;19934;-77
2022/06/29 03:49:48;;;;;;;;;;;;;;;;;;5069971;28;19922;-77
2022/06/29 03:52:14;;;;;;;;;;;;;;;;;;5058301;28;20307;-77
2022/06/29 03:54:41;;;;;;;;;;;;;;;;;;5056094;28;19942;-75
2022/06/29 03:57:07;;;;;;;;;;;;;;;;;;5067977;28;19925;-75
2022/06/29 03:59:33;;;;;;;;;;;;;;;;;;5065329;28;19920;-77
2022/06/29 04:01:59;;;;;;;;;;;;;;;;;;5061620;28;19912;-75
2022/06/29 04:04:25;;;;;;;;;;;;;;;;;;5061700;28;20410;-76
2022/06/29 04:06:51;;;;;;;;;;;;;;;;;;5055798;28;20277;-75
2022/06/29 04:09:17;;;;;;;;;;;;;;;;;;5065904;28;19913;-75
2022/06/29 04:11:52;;;;;;;;;;;;;;;;;;5064867;28;19915;-76
2022/06/29 04:14:18;;;;;;;;;;;;;;;;;;5059562;28;19912;-76
2022/06/29 04:16:44;;;;;;;;;;;;;;;;;;5066108;28;20306;-76
2022/06/29 04:19:10;;;;;;;;;;;;;;;;;;5066502;28;19916;-76
2022/06/29 04:21:37;;;;;;;;;;;;;;;;;;5060420;28;19919;-77
2022/06/29 04:24:03;;;;;;;;;;;;;;;;;;5066459;28;19908;-76
2022/06/29 04:26:29;;;;;;;;;;;;;;;;;;5072837;28;19908;-76
2022/06/29 04:28:55;;;;;;;;;;;;;;;;;;5057447;28;20315;-76
2022/06/29 04:31:21;;;;;;;;;;;;;;;;;;5042868;28;20343;-76
2022/06/29 04:33:47;;;;;;;;;;;;;;;;;;5070933;28;19908;-76
2022/06/29 04:36:13;;;;;;;;;;;;;;;;;;5062555;28;19909;-76
2022/06/29 04:38:40;;;;;;;;;;;;;;;;;;5063514;28;19915;-76
2022/06/29 04:41:06;;;;;;;;;;;;;;;;;;5056443;28;19917;-75
2022/06/29 04:43:32;;;;;;;;;;;;;;;;;;5062270;28;19912;-76
2022/06/29 04:48:43;;;;;;;;;;;;;;;;;;5052517;28;20523;-76
2022/06/29 04:51:09;;;;;;;;;;;;;;;;;;5054794;28;19931;-76
2022/06/29 04:53:35;;;;;;;;;;;;;;;;;;5064830;28;19909;-76
2022/06/29 04:56:01;;;;;;;;;;;;;;;;;;5053243;28;19924;-76
2022/06/29 04:58:27;;;;;;;;;;;;;;;;;;5068055;28;19982;-75
2022/06/29 05:00:53;;;;;;;;;;;;;;;;;;5055223;28;19917;-75
2022/06/29 05:03:20;;;;;;;;;;;;;;;;;;5057228;28;19909;-76
2022/06/29 05:05:47;;;;;;;;;;;;;;;;;;5071783;28;20337;-77
2022/06/29 05:08:14;;;;;;;;;;;;;;;;;;5068002;28;19915;-76
2022/06/29 05:10:40;;;;;;;;;;;;;;;;;;5068261;28;19908;-75
2022/06/29 05:13:09;;;;;;;;;;;;;;;;;;5060930;28;19912;-76
2022/06/29 05:15:35;;;;;;;;;;;;;;;;;;5039115;28;19968;-76
2022/06/29 05:18:01;;;;;;;;;;;;;;;;;;5061752;28;19939;-76
2022/06/29 05:20:27;;;;;;;;;;;;;;;;;;5066870;28;19920;-76
2022/06/29 05:22:53;;;;;;;;;;;;;;;;;;5071518;28;20275;-76
2022/06/29 05:25:20;;;;;;;;;;;;;;;;;;5070223;28;19908;-76
2022/06/29 05:27:46;;;;;;;;;;;;;;;;;;5066076;28;19915;-76
2022/06/29 05:30:12;;;;;;;;;;;;;;;;;;5062418;28;19913;-76
2022/06/29 05:32:38;;;;;;;;;;;;;;;;;;5070518;28;19920;-75
2022/06/29 05:35:04;;;;;;;;;;;;;;;;;;5071425;28;19909;-76
2022/06/29 05:37:31;;;;;;;;;;;;;;;;;;5059651;28;19915;-75
2022/06/29 05:39:57;;;;;;;;;;;;;;;;;;5042058;28;19921;-77
2022/06/29 05:42:23;;;;;;;;;;;;;;;;;;5060803;28;19923;-75
2022/06/29 05:44:49;;;;;;;;;;;;;;;;;;5056265;28;19908;-76
2022/06/29 05:47:15;;;;;;;;;;;;;;;;;;5062805;28;19908;-75
2022/06/29 05:49:41;;;;;;;;;;;;;;;;;;5046975;28;19912;-77
2022/06/29 05:52:08;;;;;;;;;;;;;;;;;;5071176;28;19915;-75
2022/06/29 05:54:34;;;;;;;;;;;;;;;;;;5070675;28;19914;-74
2022/06/29 05:57:00;;;;;;;;;;;;;;;;;;5066828;28;19924;-76
2022/06/29 05:59:26;;;;;;;;;;;;;;;;;;5067469;28;19916;-76
2022/06/29 06:01:52;;;;;;;;;;;;;;;;;;5070069;28;19927;-76
2022/06/29 06:04:20;;;;;;;;;;;;;;;;;;5066787;28;20401;-76
2022/06/29 06:06:47;;;;;;;;;;;;;;;;;;5057021;28;19913;-76
2022/06/29 06:09:13;;;;;;;;;;;;;;;;;;5066237;28;19909;-75
2022/06/29 06:11:39;;;;;;;;;;;;;;;;;;5059829;28;19922;-76
2022/06/29 06:14:05;;;;;;;;;;;;;;;;;;5067500;28;19908;-75
2022/06/29 06:16:31;;;;;;;;;;;;;;;;;;5065666;28;19909;-76
2022/06/29 06:18:57;;;;;;;;;;;;;;;;;;5065068;28;19920;-76
2022/06/29 06:21:23;;;;;;;;;;;;;;;;;;5066584;28;19912;-77
2022/06/29 06:23:50;;;;;;;;;;;;;;;;;;5062761;28;20461;-76
2022/06/29 06:26:16;;;;;;;;;;;;;;;;;;5069591;28;19915;-76
2022/06/29 06:28:42;;;;;;;;;;;;;;;;;;5062906;28;19913;-77
2022/06/29 06:31:08;;;;;;;;;;;;;;;;;;5061900;28;19927;-76
2022/06/29 06:33:34;;;;;;;;;;;;;;;;;;5066006;28;19919;-76
2022/06/29 06:36:00;;;;;;;;;;;;;;;;;;5068277;28;19920;-76
2022/06/29 06:38:27;;;;;;;;;;;;;;;;;;5051885;28;20390;-76
2022/06/29 06:43:38;;;;;;;;;;;;;;;;;;5070248;28;19908;-76
2022/06/29 06:46:05;;;;;;;;;;;;;;;;;;5052644;28;19909;-76
2022/06/29 06:48:31;;;;;;;;;;;;;;;;;;5054960;28;19909;-77
2022/06/29 06:50:57;;;;;;;;;;;;;;;;;;5065299;28;20280;-77
2022/06/29 06:53:26;;;;;;;;;;;;;;;;;;5051510;28;19916;-77
2022/06/29 06:55:52;;;;;;;;;;;;;;;;;;5062178;28;19931;-78
2022/06/29 06:58:18;;;;;;;;;;;;;;;;;;5057589;28;20272;-76
2022/06/29 07:00:44;;;;;;;;;;;;;;;;;;5061455;28;19917;-78
2022/06/29 07:03:10;;;;;;;;;;;;;;;;;;5052996;28;19916;-77
2022/06/29 07:05:37;;;;;;;;;;;;;;;;;;5056681;28;19913;-77
2022/06/29 07:08:03;;;;;;;;;;;;;;;;;;5056599;28;19909;-76
2022/06/29 07:10:29;;;;;;;;;;;;;;;;;;5060559;28;19908;-76
2022/06/29 07:12:56;;;;;;;;;;;;;;;;;;5063597;28;19909;-77
2022/06/29 07:15:22;;;;;;;;;;;;;;;;;;5067517;28;19913;-78
2022/06/29 07:17:48;;;;;;;;;;;;;;;;;;5055453;28;20341;-78
2022/06/29 07:20:14;;;;;;;;;;;;;;;;;;5055691;28;19939;-78
2022/06/29 07:22:40;;;;;;;;;;;;;;;;;;5072414;28;19909;-77
2022/06/29 07:25:06;;;;;;;;;;;;;;;;;;5072448;28;19980;-77
2022/06/29 07:27:32;;;;;;;;;;;;;;;;;;5071373;28;19915;-77
2022/06/29 07:29:59;;;;;;;;;;;;;;;;;;5062387;28;19913;-77
2022/06/29 07:32:25;;;;;;;;;;;;;;;;;;5054908;28;19913;-78
2022/06/29 07:34:51;;;;;;;;;;;;;;;;;;5066135;28;19912;-78
2022/06/29 07:37:18;;;;;;;;;;;;;;;;;;5072673;28;19912;-76
2022/06/29 07:39:44;;;;;;;;;;;;;;;;;;5073306;28;19912;-78
2022/06/29 07:42:10;;;;;;;;;;;;;;;;;;5054132;28;19919;-77
2022/06/29 07:44:36;;;;;;;;;;;;;;;;;;5071337;28;19908;-77
2022/06/29 07:47:02;;;;;;;;;;;;;;;;;;5073051;28;19912;-77
2022/06/29 07:49:28;;;;;;;;;;;;;;;;;;5071609;28;20153;-77
2022/06/29 07:51:54;;;;;;;;;;;;;;;;;;5073235;28;19908;-77
2022/06/29 07:54:21;;;;;;;;;;;;;;;;;;5071200;28;19916;-77
2022/06/29 07:56:47;;;;;;;;;;;;;;;;;;5072152;28;19924;-77
2022/06/29 07:59:13;;;;;;;;;;;;;;;;;;5071938;28;19914;-77
2022/06/29 08:01:39;;;;;;;;;;;;;;;;;;5072817;28;19919;-78
2022/06/29 08:04:05;;;;;;;;;;;;;;;;;;5060825;28;20365;-78
2022/06/29 08:06:31;;;;;;;;;;;;;;;;;;5058450;28;19916;-78
2022/06/29 08:08:58;;;;;;;;;;;;;;;;;;5054825;28;19912;-79
2022/06/29 08:11:25;;;;;;;;;;;;;;;;;;5066209;28;19909;-78
2022/06/29 08:13:51;;;;;;;;;;;;;;;;;;5070701;28;20379;-78
2022/06/29 08:16:17;;;;;;;;;;;;;;;;;;5061272;28;20416;-78
2022/06/29 08:18:44;;;;;;;;;;;;;;;;;;5065588;28;19909;-78
2022/06/29 08:21:10;;;;;;;;;;;;;;;;;;5055084;28;19917;-78
2022/06/29 08:23:36;;;;;;;;;;;;;;;;;;5056872;28;20386;-78
2022/06/29 08:26:02;;;;;;;;;;;;;;;;;;5062783;28;19919;-78
2022/06/29 08:28:28;;;;;;;;;;;;;;;;;;5072377;28;19908;-77
2022/06/29 08:30:54;;;;;;;;;;;;;;;;;;5070813;28;19919;-77
2022/06/29 08:33:24;;;;;;;;;;;;;;;;;;5071526;28;19908;-77
2022/06/29 08:35:50;;;;;;;;;;;;;;;;;;5070182;28;19908;-78
2022/06/29 08:38:16;;;;;;;;;;;;;;;;;;5053213;28;19915;-77
2022/06/29 08:40:44;;;;;;;;;;;;;;;;;;5063980;28;19920;-77
2022/06/29 08:43:10;;;;;;;;;;;;;;;;;;5059664;28;19915;-76
2022/06/29 08:45:36;;;;;;;;;;;;;;;;;;5060709;28;20624;-77
2022/06/29 08:48:03;;;;;;;;;;;;;;;;;;5064553;28;20283;-77
2022/06/29 08:50:29;;;;;;;;;;;;;;;;;;5055669;28;19919;-77
2022/06/29 08:52:55;;;;;;;;;;;;;;;;;;5056318;28;19908;-77
2022/06/29 08:55:21;;;;;;;;;;;;;;;;;;5059905;28;19950;-77
2022/06/29 08:57:47;;;;;;;;;;;;;;;;;;5059116;28;19913;-77
2022/06/29 09:00:13;;;;;;;;;;;;;;;;;;5060489;28;19927;-77
2022/06/29 09:02:39;;;;;;;;;;;;;;;;;;5059577;28;19913;-77
2022/06/29 09:05:06;;;;;;;;;;;;;;;;;;5068221;28;19909;-79
2022/06/29 09:07:32;;;;;;;;;;;;;;;;;;5063108;28;20276;-78
2022/06/29 09:09:58;;;;;;;;;;;;;;;;;;5069779;28;19908;-77
2022/06/29 09:12:25;;;;;;;;;;;;;;;;;;5065396;28;20358;-77
2022/06/29 09:14:51;;;;;;;;;;;;;;;;;;5059789;28;19926;-78
2022/06/29 09:17:17;;;;;;;;;;;;;;;;;;5059773;28;19917;-77
2022/06/29 09:19:43;;;;;;;;;;;;;;;;;;5071051;28;19912;-77
2022/06/29 09:22:09;;;;;;;;;;;;;;;;;;5059686;28;20356;-78
2022/06/29 09:24:35;;;;;;;;;;;;;;;;;;5071719;28;20287;-77
2022/06/29 09:27:02;;;;;;;;;;;;;;;;;;5068966;28;19912;-77
2022/06/29 09:29:29;;;;;;;;;;;;;;;;;;5057932;28;19913;-77
2022/06/29 09:31:55;;;;;;;;;;;;;;;;;;5070462;28;19915;-78
2022/06/29 09:34:21;;;;;;;;;;;;;;;;;;5066048;28;19940;-78
2022/06/29 09:36:47;;;;;;;;;;;;;;;;;;5062637;28;19913;-78
2022/06/29 09:39:13;;;;;;;;;;;;;;;;;;5071251;28;19914;-78
2022/06/29 09:41:39;;;;;;;;;;;;;;;;;;5053353;28;19920;-78
2022/06/29 09:44:05;;;;;;;;;;;;;;;;;;5068931;28;19912;-78
2022/06/29 09:46:32;;;;;;;;;;;;;;;;;;5070546;28;20453;-78
2022/06/29 09:48:58;;;;;;;;;;;;;;;;;;5070508;28;19908;-78
2022/06/29 09:51:30;;;;;;;;;;;;;;;;;;5066603;28;19918;-78
2022/06/29 09:53:56;;;;;;;;;;;;;;;;;;5059916;28;19978;-78
2022/06/29 09:56:22;;;;;;;;;;;;;;;;;;5065400;28;19925;-78
2022/06/29 09:58:49;;;;;;;;;;;;;;;;;;5067533;28;19908;-78
2022/06/29 10:04:00;;;;;;;;;;;;;;;;;;5059789;28;19912;-77
2022/06/29 10:06:26;;;;;;;;;;;;;;;;;;5055140;28;19923;-78
2022/06/29 10:08:52;;;;;;;;;;;;;;;;;;5066883;28;19919;-77
2022/06/29 10:14:03;;;;;;;;;;;;;;;;;;5058815;28;19917;-78
2022/06/29 10:16:29;;;;;;;;;;;;;;;;;;5068864;28;19912;-78
2022/06/29 10:18:55;;;;;;;;;;;;;;;;;;5067264;28;19982;-78
2022/06/29 10:21:22;;;;;;;;;;;;;;;;;;5052402;28;19927;-78
2022/06/29 10:23:48;;;;;;;;;;;;;;;;;;5066548;28;19913;-78
2022/06/29 10:26:14;;;;;;;;;;;;;;;;;;5061696;28;20371;-78
2022/06/29 10:28:40;;;;;;;;;;;;;;;;;;5070126;28;20281;-79
2022/06/29 10:31:07;;;;;;;;;;;;;;;;;;5055072;28;19913;-78
2022/06/29 10:33:33;;;;;;;;;;;;;;;;;;5051112;28;19908;-78
2022/06/29 10:36:03;;;;;;;;;;;;;;;;;;5052905;28;20512;-79
2022/06/29 10:38:31;;;;;;;;;;;;;;;;;;5053967;28;19908;-79
2022/06/29 10:40:57;;;;;;;;;;;;;;;;;;5056492;28;19936;-79
2022/06/29 10:43:44;;;;;;;;;;;;;;;;;;5062208;28;19909;-78
2022/06/29 10:46:30;;;;;;;;;;;;;;;;;;5068239;28;19909;-78
2022/06/29 10:49:17;;;;;;;;;;;;;;;;;;5058342;28;20288;-78
2022/06/29 10:52:03;;;;;;;;;;;;;;;;;;5062586;28;19909;-78
2022/06/29 10:54:49;;;;;;;;;;;;;;;;;;5061950;28;19912;-78
2022/06/29 10:57:36;;;;;;;;;;;;;;;;;;5071315;28;19917;-78
2022/06/29 11:00:22;;;;;;;;;;;;;;;;;;5057030;28;19924;-78
2022/06/29 11:03:10;;;;;;;;;;;;;;;;;;5057071;28;19909;-78
2022/06/29 11:12:07;;;;;;;;;;;;;;;;;;5064474;28;19943;-79
2022/06/29 11:17:59;;;;;;;;;;;;;;;;;;5056912;28;20384;-78
2022/06/29 11:20:46;;;;;;;;;;;;;;;;;;5056838;28;19924;-78
2022/06/29 11:23:32;;;;;;;;;;;;;;;;;;5069526;28;19913;-79
2022/06/29 11:26:19;;;;;;;;;;;;;;;;;;5062910;28;19909;-79
2022/06/29 11:29:05;;;;;;;;;;;;;;;;;;5070854;28;19992;-79
2022/06/29 11:31:52;;;;;;;;;;;;;;;;;;5060997;28;19961;-79
2022/06/29 11:34:38;;;;;;;;;;;;;;;;;;5060786;28;19916;-77
2022/06/29 11:37:25;;;;;;;;;;;;;;;;;;5070517;28;19908;-78
2022/06/29 11:40:11;;;;;;;;;;;;;;;;;;5070589;28;19923;-78
2022/06/29 11:43:04;;;;;;;;;;;;;;;;;;5069374;28;19920;-78
2022/06/29 11:45:51;;;;;;;;;;;;;;;;;;5069843;28;19915;-78
2022/06/29 11:49:33;;;;;;;;;;;;;;;;;;5056906;28;19909;-79
2022/06/29 11:51:44;;;;;;;;;;;;;;;;;;5069266;28;19908;-79
2022/06/29 11:54:30;;;;;;;;;;;;;;;;;;5054091;28;19915;-78
2022/06/29 11:57:17;;;;;;;;;;;;;;;;;;5052220;28;19931;-78
2022/06/29 12:00:04;;;;;;;;;;;;;;;;;;5046997;28;19921;-79
2022/06/29 12:02:50;;;;;;;;;;;;;;;;;;5037175;28;20292;-79
2022/06/29 12:05:36;;;;;;;;;;;;;;;;;;5048771;28;19974;-79
2022/06/29 12:08:23;;;;;;;;;;;;;;;;;;5034621;28;19917;-78
2022/06/29 12:11:09;;;;;;;;;;;;;;;;;;5051318;28;19913;-77
2022/06/29 12:13:56;;;;;;;;;;;;;;;;;;5034369;28;19917;-77
2022/06/29 12:16:42;;;;;;;;;;;;;;;;;;5039621;28;20274;-77
2022/06/29 12:19:29;;;;;;;;;;;;;;;;;;5043771;28;19908;-78
2022/06/29 12:22:16;;;;;;;;;;;;;;;;;;5041502;28;19917;-77
2022/06/29 12:25:02;;;;;;;;;;;;;;;;;;5046716;28;19919;-79
2022/06/29 12:27:49;;;;;;;;;;;;;;;;;;5044567;28;20388;-77
2022/06/29 12:30:36;;;;;;;;;;;;;;;;;;5030853;28;20356;-79
2022/06/29 12:33:22;;;;;;;;;;;;;;;;;;5050796;28;19913;-79
2022/06/29 12:36:09;;;;;;;;;;;;;;;;;;5050287;28;19931;-77
2022/06/29 12:38:56;;;;;;;;;;;;;;;;;;5048506;28;19909;-79
2022/06/29 12:41:42;;;;;;;;;;;;;;;;;;5036615;28;19936;-78
2022/06/29 12:44:29;;;;;;;;;;;;;;;;;;5048892;28;19919;-78
2022/06/29 12:47:15;;;;;;;;;;;;;;;;;;5048471;28;19915;-78
2022/06/29 12:50:02;;;;;;;;;;;;;;;;;;5039323;28;19913;-78
2022/06/29 12:52:50;;;;;;;;;;;;;;;;;;5048996;28;19916;-78
2022/06/29 12:55:36;;;;;;;;;;;;;;;;;;5052406;28;19921;-78
2022/06/29 12:58:23;;;;;;;;;;;;;;;;;;5055714;28;19919;-78
2022/06/29 13:01:09;;;;;;;;;;;;;;;;;;5066485;28;20391;-77
2022/06/29 13:03:55;;;;;;;;;;;;;;;;;;5064026;28;19909;-77
2022/06/29 13:06:42;;;;;;;;;;;;;;;;;;5068158;28;20372;-77
2022/06/29 13:09:28;;;;;;;;;;;;;;;;;;5060577;28;20383;-79
2022/06/29 13:12:15;;;;;;;;;;;;;;;;;;5063399;28;19915;-77
2022/06/29 13:15:01;;;;;;;;;;;;;;;;;;5061933;28;19958;-79
2022/06/29 13:17:48;;;;;;;;;;;;;;;;;;5054501;28;19912;-79
2022/06/29 13:20:34;;;;;;;;;;;;;;;;;;5064629;28;20555;-77
2022/06/29 13:23:21;;;;;;;;;;;;;;;;;;5063054;28;19916;-77
2022/06/29 13:26:07;;;;;;;;;;;;;;;;;;5061455;28;19913;-78
2022/06/29 13:28:54;;;;;;;;;;;;;;;;;;5062405;28;19912;-78
2022/06/29 13:31:42;;;;;;;;;;;;;;;;;;5050112;28;19913;-79
2022/06/29 13:34:28;;;;;;;;;;;;;;;;;;5052707;28;19909;-78
2022/06/29 13:37:15;;;;;;;;;;;;;;;;;;5068976;28;19974;-77
2022/06/29 13:40:01;;;;;;;;;;;;;;;;;;5068596;28;19909;-79
2022/06/29 13:42:48;;;;;;;;;;;;;;;;;;5065465;28;19920;-78
2022/06/29 13:45:34;;;;;;;;;;;;;;;;;;5061963;28;20391;-78
2022/06/29 13:48:21;;;;;;;;;;;;;;;;;;5064978;28;19913;-77
2022/06/29 13:51:10;;;;;;;;;;;;;;;;;;5067425;28;20870;-78
2022/06/29 13:53:56;;;;;;;;;;;;;;;;;;5059340;28;19908;-77
2022/06/29 13:56:43;;;;;;;;;;;;;;;;;;5062276;28;19930;-77
2022/06/29 13:59:29;;;;;;;;;;;;;;;;;;5064367;28;19909;-79
2022/06/29 14:02:16;;;;;;;;;;;;;;;;;;5064415;28;19935;-77
2022/06/29 14:05:02;;;;;;;;;;;;;;;;;;5058275;28;19935;-79
2022/06/29 14:07:48;;;;;;;;;;;;;;;;;;5061942;28;20356;-77
2022/06/29 14:10:35;;;;;;;;;;;;;;;;;;5064556;28;19909;-78
2022/06/29 14:13:21;;;;;;;;;;;;;;;;;;5060386;28;20373;-78
2022/06/29 14:16:08;;;;;;;;;;;;;;;;;;5068509;28;19983;-77
2022/06/29 14:18:54;;;;;;;;;;;;;;;;;;5055977;28;19916;-77
2022/06/29 14:21:41;;;;;;;;;;;;;;;;;;5065517;28;19925;-77
2022/06/29 14:24:27;;;;;;;;;;;;;;;;;;5053586;28;19909;-77
2022/06/29 14:27:14;;;;;;;;;;;;;;;;;;5067778;28;19915;-77
2022/06/29 14:30:00;;;;;;;;;;;;;;;;;;5059447;28;19916;-78
2022/06/29 14:32:47;;;;;;;;;;;;;;;;;;5064622;28;19912;-77
2022/06/29 14:35:33;;;;;;;;;;;;;;;;;;5042158;28;20280;-78
2022/06/29 14:38:20;;;;;;;;;;;;;;;;;;5056129;28;19916;-78
2022/06/29 14:41:07;;;;;;;;;;;;;;;;;;5052389;28;19924;-77
2022/06/29 14:43:54;;;;;;;;;;;;;;;;;;5052330;28;20357;-77
2022/06/29 14:46:41;;;;;;;;;;;;;;;;;;5059773;28;19909;-77
2022/06/29 14:49:28;;;;;;;;;;;;;;;;;;5047077;28;19916;-77
2022/06/29 14:52:14;;;;;;;;;;;;;;;;;;5057685;28;20309;-77
2022/06/29 14:55:01;;;;;;;;;;;;;;;;;;5059901;28;19923;-78
2022/06/29 14:57:47;;;;;;;;;;;;;;;;;;5038333;28;19999;-77
2022/06/29 15:00:34;;;;;;;;;;;;;;;;;;5055003;28;20394;-77
2022/06/29 15:03:21;;;;;;;;;;;;;;;;;;5063179;28;19913;-77
2022/06/29 15:06:07;;;;;;;;;;;;;;;;;;5066956;28;20299;-77
2022/06/29 15:08:54;;;;;;;;;;;;;;;;;;5049985;28;20391;-76
2022/06/29 15:11:42;;;;;;;;;;;;;;;;;;5040274;28;19909;-77
2022/06/29 15:14:28;;;;;;;;;;;;;;;;;;5060988;28;19920;-78
2022/06/29 15:17:14;;;;;;;;;;;;;;;;;;5050036;28;20389;-78
2022/06/29 15:20:01;;;;;;;;;;;;;;;;;;5052979;28;19917;-78
2022/06/29 15:22:47;;;;;;;;;;;;;;;;;;5049088;28;19924;-78
2022/06/29 15:25:34;;;;;;;;;;;;;;;;;;5054374;28;20544;-78
2022/06/29 15:28:20;;;;;;;;;;;;;;;;;;5053588;28;19919;-77
2022/06/29 15:31:07;;;;;;;;;;;;;;;;;;5069316;28;20403;-78
2022/06/29 15:40:03;;;;;;;;;;;;;;;;;;5053586;28;19915;-78
2022/06/29 15:42:50;;;;;;;;;;;;;;;;;;5055832;28;19917;-78
2022/06/29 15:45:36;;;;;;;;;;;;;;;;;;5070892;28;19909;-78
2022/06/29 15:48:23;;;;;;;;;;;;;;;;;;5057875;28;19912;-79
2022/06/29 15:51:09;;;;;;;;;;;;;;;;;;5055294;28;20304;-79
2022/06/29 15:57:01;;;;;;;;;;;;;;;;;;5060318;28;19929;-79
2022/06/29 15:59:47;;;;;;;;;;;;;;;;;;5067673;28;20394;-78
2022/06/29 16:02:34;;;;;;;;;;;;;;;;;;5062809;28;19924;-78
2022/06/29 16:05:20;;;;;;;;;;;;;;;;;;5057974;28;20356;-77
2022/06/29 16:08:07;;;;;;;;;;;;;;;;;;5066115;28;19908;-78
2022/06/29 16:10:53;;;;;;;;;;;;;;;;;;5063041;28;20400;-78
2022/06/29 16:13:40;;;;;;;;;;;;;;;;;;5061416;28;19908;-77
2022/06/29 16:16:27;;;;;;;;;;;;;;;;;;5057467;28;19909;-77
2022/06/29 16:19:14;;;;;;;;;;;;;;;;;;5065087;28;19915;-77
2022/06/29 16:22:00;;;;;;;;;;;;;;;;;;5066231;28;20801;-78
2022/06/29 16:24:47;;;;;;;;;;;;;;;;;;5044937;28;19913;-84
2022/06/29 16:27:33;;;;;;;;;;;;;;;;;;5062295;28;19934;-80
2022/06/29 16:30:19;;;;;;;;;;;;;;;;;;5053907;28;19919;-81
2022/06/29 16:33:06;;;;;;;;;;;;;;;;;;5067311;28;19918;-79
2022/06/29 16:35:52;;;;;;;;;;;;;;;;;;5058854;28;19915;-82
2022/06/29 16:38:39;;;;;;;;;;;;;;;;;;5060812;28;19920;-84
2022/06/29 16:41:26;;;;;;;;;;;;;;;;;;5054377;28;19920;-84
2022/06/29 16:44:12;;;;;;;;;;;;;;;;;;5065058;28;19917;-83
2022/06/29 16:46:58;;;;;;;;;;;;;;;;;;5054706;28;20277;-85
2022/06/29 16:49:45;;;;;;;;;;;;;;;;;;5060747;28;19908;-82
2022/06/29 16:52:32;;;;;;;;;;;;;;;;;;5069920;28;19917;-83
2022/06/29 16:55:18;;;;;;;;;;;;;;;;;;5050107;28;19925;-81
2022/06/29 16:58:05;;;;;;;;;;;;;;;;;;5058736;28;19935;-81
2022/06/29 17:00:51;;;;;;;;;;;;;;;;;;5062366;28;20020;-82
2022/06/29 17:03:38;;;;;;;;;;;;;;;;;;5059037;28;19924;-81
2022/06/29 17:06:24;;;;;;;;;;;;;;;;;;5057580;28;19924;-81
2022/06/29 17:09:11;;;;;;;;;;;;;;;;;;5057870;28;19960;-81
2022/06/29 17:11:57;;;;;;;;;;;;;;;;;;5048349;28;19928;-80
2022/06/29 17:14:44;;;;;;;;;;;;;;;;;;5059871;28;20336;-80
2022/06/29 17:17:30;;;;;;;;;;;;;;;;;;5058360;28;20407;-81
2022/06/29 17:20:20;;;;;;;;;;;;;;;;;;5069055;28;19923;-81
2022/06/29 17:23:06;;;;;;;;;;;;;;;;;;5061092;28;19924;-80
2022/06/29 17:25:53;;;;;;;;;;;;;;;;;;5055961;28;19912;-82
2022/06/29 17:28:39;;;;;;;;;;;;;;;;;;5056119;28;19915;-82
2022/06/29 17:31:26;;;;;;;;;;;;;;;;;;5051275;28;20372;-81
2022/06/29 17:34:12;;;;;;;;;;;;;;;;;;5052440;28;19920;-81
2022/06/29 17:36:58;;;;;;;;;;;;;;;;;;5060578;28;19920;-81
2022/06/29 17:39:45;;;;;;;;;;;;;;;;;;5064803;28;19908;-83
2022/06/29 17:42:32;;;;;;;;;;;;;;;;;;5064387;28;19925;-83
2022/06/29 17:45:19;;;;;;;;;;;;;;;;;;5056576;28;19912;-83
2022/06/29 17:48:07;;;;;;;;;;;;;;;;;;5055904;28;19909;-82
2022/06/29 17:50:53;;;;;;;;;;;;;;;;;;5067642;28;19916;-83
2022/06/29 17:53:39;;;;;;;;;;;;;;;;;;5048181;28;20296;-84
2022/06/29 17:56:26;;;;;;;;;;;;;;;;;;5057285;28;19921;-84
2022/06/29 17:59:12;;;;;;;;;;;;;;;;;;5065508;28;19950;-83
2022/06/29 18:01:59;;;;;;;;;;;;;;;;;;5060696;28;19954;-84
2022/06/29 18:04:46;;;;;;;;;;;;;;;;;;5059448;28;19920;-86